sensor_id;sensor_type;location;lat;lon;timestamp;P1;durP1;ratioP1;P2;durP2;ratioP2
9563;SDS011;4820;50.870;4.702;2023-02-15T00:02:19;27.52;;;21.50;;
9563;SDS011;4820;50.870;4.702;2023-02-15T00:04:45;28.15;;;21.42;;
9563;SDS011;4820;50.870;4.702;2023-02-15T00:07:12;26.95;;;20.35;;
9563;SDS011;4820;50.870;4.702;2023-02-15T00:09:43;27.48;;;20.00;;
9563;SDS011;4820;50.870;4.702;2023-02-15T00:12:10;25.95;;;19.88;;
9563;SDS011;4820;50.870;4.702;2023-02-15T00:14:37;25.73;;;20.58;;
9563;SDS011;4820;50.870;4.702;2023-02-15T00:17:03;23.95;;;19.17;;
9563;SDS011;4820;50.870;4.702;2023-02-15T00:19:29;25.67;;;20.40;;
9563;SDS011;4820;50.870;4.702;2023-02-15T00:21:54;26.67;;;20.25;;
9563;SDS011;4820;50.870;4.702;2023-02-15T00:24:20;27.05;;;19.98;;
9563;SDS011;4820;50.870;4.702;2023-02-15T00:26:46;24.85;;;19.30;;
9563;SDS011;4820;50.870;4.702;2023-02-15T00:29:15;25.77;;;19.50;;
9563;SDS011;4820;50.870;4.702;2023-02-15T00:31:42;24.98;;;20.17;;
9563;SDS011;4820;50.870;4.702;2023-02-15T00:34:12;25.75;;;18.65;;
9563;SDS011;4820;50.870;4.702;2023-02-15T00:36:43;27.08;;;18.88;;
9563;SDS011;4820;50.870;4.702;2023-02-15T00:39:10;25.13;;;20.45;;
9563;SDS011;4820;50.870;4.702;2023-02-15T00:41:36;27.08;;;20.08;;
9563;SDS011;4820;50.870;4.702;2023-02-15T00:44:02;26.27;;;19.88;;
9563;SDS011;4820;50.870;4.702;2023-02-15T00:46:31;24.80;;;19.35;;
9563;SDS011;4820;50.870;4.702;2023-02-15T00:48:57;27.13;;;19.00;;
9563;SDS011;4820;50.870;4.702;2023-02-15T00:51:24;27.25;;;20.05;;
9563;SDS011;4820;50.870;4.702;2023-02-15T00:53:50;23.33;;;19.00;;
9563;SDS011;4820;50.870;4.702;2023-02-15T00:56:17;22.90;;;18.92;;
9563;SDS011;4820;50.870;4.702;2023-02-15T00:58:43;26.38;;;20.23;;
9563;SDS011;4820;50.870;4.702;2023-02-15T01:01:11;25.02;;;19.08;;
9563;SDS011;4820;50.870;4.702;2023-02-15T01:03:44;24.45;;;18.90;;
9563;SDS011;4820;50.870;4.702;2023-02-15T01:06:11;27.55;;;19.75;;
9563;SDS011;4820;50.870;4.702;2023-02-15T01:08:39;25.33;;;18.85;;
9563;SDS011;4820;50.870;4.702;2023-02-15T01:11:05;25.23;;;18.60;;
9563;SDS011;4820;50.870;4.702;2023-02-15T01:13:33;24.63;;;19.38;;
9563;SDS011;4820;50.870;4.702;2023-02-15T01:15:59;24.52;;;18.75;;
9563;SDS011;4820;50.870;4.702;2023-02-15T01:18:25;22.55;;;18.48;;
9563;SDS011;4820;50.870;4.702;2023-02-15T01:20:52;26.13;;;18.85;;
9563;SDS011;4820;50.870;4.702;2023-02-15T01:23:18;26.00;;;18.98;;
9563;SDS011;4820;50.870;4.702;2023-02-15T01:25:44;25.63;;;19.08;;
9563;SDS011;4820;50.870;4.702;2023-02-15T01:28:10;24.25;;;19.15;;
9563;SDS011;4820;50.870;4.702;2023-02-15T01:30:36;25.77;;;19.50;;
9563;SDS011;4820;50.870;4.702;2023-02-15T01:33:02;27.83;;;19.23;;
9563;SDS011;4820;50.870;4.702;2023-02-15T01:35:28;25.00;;;19.98;;
9563;SDS011;4820;50.870;4.702;2023-02-15T01:37:55;26.77;;;19.52;;
9563;SDS011;4820;50.870;4.702;2023-02-15T01:40:21;26.83;;;19.87;;
9563;SDS011;4820;50.870;4.702;2023-02-15T01:42:54;23.20;;;18.25;;
9563;SDS011;4820;50.870;4.702;2023-02-15T01:48:05;23.52;;;18.20;;
9563;SDS011;4820;50.870;4.702;2023-02-15T01:50:54;25.85;;;18.48;;
9563;SDS011;4820;50.870;4.702;2023-02-15T01:53:34;28.05;;;18.90;;
9563;SDS011;4820;50.870;4.702;2023-02-15T01:56:22;26.30;;;18.70;;
9563;SDS011;4820;50.870;4.702;2023-02-15T01:58:51;23.90;;;18.37;;
9563;SDS011;4820;50.870;4.702;2023-02-15T02:01:21;25.15;;;18.45;;
9563;SDS011;4820;50.870;4.702;2023-02-15T02:06:32;24.25;;;18.15;;
9563;SDS011;4820;50.870;4.702;2023-02-15T02:09:00;25.23;;;19.25;;
9563;SDS011;4820;50.870;4.702;2023-02-15T02:11:27;27.48;;;19.73;;
9563;SDS011;4820;50.870;4.702;2023-02-15T02:13:53;24.10;;;18.40;;
9563;SDS011;4820;50.870;4.702;2023-02-15T02:24:48;26.30;;;19.30;;
9563;SDS011;4820;50.870;4.702;2023-02-15T02:27:34;24.60;;;19.13;;
9563;SDS011;4820;50.870;4.702;2023-02-15T02:39:02;29.25;;;20.58;;
9563;SDS011;4820;50.870;4.702;2023-02-15T02:47:26;25.35;;;19.67;;
9563;SDS011;4820;50.870;4.702;2023-02-15T02:50:08;26.13;;;19.97;;
9563;SDS011;4820;50.870;4.702;2023-02-15T02:52:48;28.20;;;19.87;;
9563;SDS011;4820;50.870;4.702;2023-02-15T02:55:18;26.05;;;19.25;;
9563;SDS011;4820;50.870;4.702;2023-02-15T02:57:53;24.98;;;19.80;;
9563;SDS011;4820;50.870;4.702;2023-02-15T03:00:22;26.20;;;20.00;;
9563;SDS011;4820;50.870;4.702;2023-02-15T03:02:52;24.20;;;19.00;;
9563;SDS011;4820;50.870;4.702;2023-02-15T03:05:25;26.67;;;19.80;;
9563;SDS011;4820;50.870;4.702;2023-02-15T03:07:55;26.83;;;19.40;;
9563;SDS011;4820;50.870;4.702;2023-02-15T03:10:22;27.80;;;18.90;;
9563;SDS011;4820;50.870;4.702;2023-02-15T03:12:49;27.10;;;19.17;;
9563;SDS011;4820;50.870;4.702;2023-02-15T03:15:24;25.07;;;18.83;;
9563;SDS011;4820;50.870;4.702;2023-02-15T03:18:15;26.73;;;20.40;;
9563;SDS011;4820;50.870;4.702;2023-02-15T03:20:45;26.67;;;19.67;;
9563;SDS011;4820;50.870;4.702;2023-02-15T03:23:15;27.87;;;19.33;;
9563;SDS011;4820;50.870;4.702;2023-02-15T03:25:50;26.73;;;19.80;;
9563;SDS011;4820;50.870;4.702;2023-02-15T03:28:22;24.92;;;19.08;;
9563;SDS011;4820;50.870;4.702;2023-02-15T03:30:57;27.88;;;19.13;;
9563;SDS011;4820;50.870;4.702;2023-02-15T03:33:26;24.70;;;19.37;;
9563;SDS011;4820;50.870;4.702;2023-02-15T03:38:51;26.70;;;19.77;;
9563;SDS011;4820;50.870;4.702;2023-02-15T03:41:26;26.70;;;19.02;;
9563;SDS011;4820;50.870;4.702;2023-02-15T03:44:03;23.70;;;18.90;;
9563;SDS011;4820;50.870;4.702;2023-02-15T03:46:49;26.27;;;18.97;;
9563;SDS011;4820;50.870;4.702;2023-02-15T03:49:22;25.33;;;18.95;;
9563;SDS011;4820;50.870;4.702;2023-02-15T03:52:11;25.23;;;19.23;;
9563;SDS011;4820;50.870;4.702;2023-02-15T03:57:11;25.52;;;19.13;;
9563;SDS011;4820;50.870;4.702;2023-02-15T03:59:58;24.77;;;18.63;;
9563;SDS011;4820;50.870;4.702;2023-02-15T04:05:22;25.73;;;18.77;;
9563;SDS011;4820;50.870;4.702;2023-02-15T04:07:49;26.57;;;19.93;;
9563;SDS011;4820;50.870;4.702;2023-02-15T04:10:14;29.40;;;20.93;;
9563;SDS011;4820;50.870;4.702;2023-02-15T04:12:59;28.13;;;20.53;;
9563;SDS011;4820;50.870;4.702;2023-02-15T04:15:24;26.03;;;18.97;;
9563;SDS011;4820;50.870;4.702;2023-02-15T04:18:08;27.88;;;19.40;;
9563;SDS011;4820;50.870;4.702;2023-02-15T04:20:34;27.67;;;20.03;;
9563;SDS011;4820;50.870;4.702;2023-02-15T04:23:18;26.37;;;18.67;;
9563;SDS011;4820;50.870;4.702;2023-02-15T04:26:03;25.83;;;19.00;;
9563;SDS011;4820;50.870;4.702;2023-02-15T04:28:30;25.70;;;18.90;;
9563;SDS011;4820;50.870;4.702;2023-02-15T04:30:55;26.42;;;19.50;;
9563;SDS011;4820;50.870;4.702;2023-02-15T04:33:21;27.40;;;20.30;;
9563;SDS011;4820;50.870;4.702;2023-02-15T04:35:47;28.73;;;20.13;;
9563;SDS011;4820;50.870;4.702;2023-02-15T04:38:13;23.47;;;18.83;;
9563;SDS011;4820;50.870;4.702;2023-02-15T04:40:39;21.73;;;17.87;;
9563;SDS011;4820;50.870;4.702;2023-02-15T04:43:05;23.57;;;18.57;;
9563;SDS011;4820;50.870;4.702;2023-02-15T04:45:32;24.57;;;18.47;;
9563;SDS011;4820;50.870;4.702;2023-02-15T04:47:58;24.47;;;18.70;;
9563;SDS011;4820;50.870;4.702;2023-02-15T04:50:24;25.77;;;19.80;;
9563;SDS011;4820;50.870;4.702;2023-02-15T04:52:49;24.47;;;18.17;;
9563;SDS011;4820;50.870;4.702;2023-02-15T04:55:15;26.08;;;18.50;;
9563;SDS011;4820;50.870;4.702;2023-02-15T04:57:41;24.20;;;19.20;;
9563;SDS011;4820;50.870;4.702;2023-02-15T05:00:07;25.42;;;18.98;;
9563;SDS011;4820;50.870;4.702;2023-02-15T05:02:33;25.97;;;19.33;;
9563;SDS011;4820;50.870;4.702;2023-02-15T05:04:59;24.73;;;18.23;;
9563;SDS011;4820;50.870;4.702;2023-02-15T05:07:25;26.13;;;19.20;;
9563;SDS011;4820;50.870;4.702;2023-02-15T05:09:51;25.00;;;18.40;;
9563;SDS011;4820;50.870;4.702;2023-02-15T05:12:18;23.07;;;18.37;;
9563;SDS011;4820;50.870;4.702;2023-02-15T05:14:44;24.30;;;17.77;;
9563;SDS011;4820;50.870;4.702;2023-02-15T05:17:09;24.50;;;18.90;;
9563;SDS011;4820;50.870;4.702;2023-02-15T05:19:35;26.10;;;18.50;;
9563;SDS011;4820;50.870;4.702;2023-02-15T05:22:01;24.00;;;17.97;;
9563;SDS011;4820;50.870;4.702;2023-02-15T05:24:26;24.33;;;18.37;;
9563;SDS011;4820;50.870;4.702;2023-02-15T05:27:11;25.10;;;18.80;;
9563;SDS011;4820;50.870;4.702;2023-02-15T05:29:56;23.90;;;17.80;;
9563;SDS011;4820;50.870;4.702;2023-02-15T05:32:22;27.17;;;19.03;;
9563;SDS011;4820;50.870;4.702;2023-02-15T05:34:47;26.63;;;18.67;;
9563;SDS011;4820;50.870;4.702;2023-02-15T05:37:14;23.10;;;17.93;;
9563;SDS011;4820;50.870;4.702;2023-02-15T05:39:40;25.17;;;19.50;;
9563;SDS011;4820;50.870;4.702;2023-02-15T05:42:06;25.30;;;18.80;;
9563;SDS011;4820;50.870;4.702;2023-02-15T05:44:31;23.00;;;17.73;;
9563;SDS011;4820;50.870;4.702;2023-02-15T05:46:57;25.97;;;18.93;;
9563;SDS011;4820;50.870;4.702;2023-02-15T05:49:23;26.63;;;19.43;;
9563;SDS011;4820;50.870;4.702;2023-02-15T05:51:48;24.80;;;19.63;;
9563;SDS011;4820;50.870;4.702;2023-02-15T05:54:14;25.50;;;19.30;;
9563;SDS011;4820;50.870;4.702;2023-02-15T05:56:40;27.80;;;19.70;;
9563;SDS011;4820;50.870;4.702;2023-02-15T05:59:05;28.33;;;19.70;;
9563;SDS011;4820;50.870;4.702;2023-02-15T06:01:31;28.77;;;20.27;;
9563;SDS011;4820;50.870;4.702;2023-02-15T06:03:57;28.53;;;20.47;;
9563;SDS011;4820;50.870;4.702;2023-02-15T06:06:24;28.93;;;20.53;;
9563;SDS011;4820;50.870;4.702;2023-02-15T06:08:49;27.23;;;20.67;;
9563;SDS011;4820;50.870;4.702;2023-02-15T06:11:15;26.80;;;19.93;;
9563;SDS011;4820;50.870;4.702;2023-02-15T06:13:41;25.83;;;19.30;;
9563;SDS011;4820;50.870;4.702;2023-02-15T06:16:06;27.50;;;19.67;;
9563;SDS011;4820;50.870;4.702;2023-02-15T06:18:32;28.00;;;19.93;;
9563;SDS011;4820;50.870;4.702;2023-02-15T06:20:58;25.00;;;18.83;;
9563;SDS011;4820;50.870;4.702;2023-02-15T06:23:24;27.70;;;19.70;;
9563;SDS011;4820;50.870;4.702;2023-02-15T06:25:49;26.67;;;20.03;;
9563;SDS011;4820;50.870;4.702;2023-02-15T06:28:15;26.00;;;20.37;;
9563;SDS011;4820;50.870;4.702;2023-02-15T06:30:41;28.40;;;22.93;;
9563;SDS011;4820;50.870;4.702;2023-02-15T06:33:07;28.63;;;21.87;;
9563;SDS011;4820;50.870;4.702;2023-02-15T06:35:33;29.40;;;21.20;;
9563;SDS011;4820;50.870;4.702;2023-02-15T06:37:59;30.60;;;20.47;;
9563;SDS011;4820;50.870;4.702;2023-02-15T06:40:24;27.87;;;20.33;;
9563;SDS011;4820;50.870;4.702;2023-02-15T06:42:50;28.20;;;20.43;;
9563;SDS011;4820;50.870;4.702;2023-02-15T06:45:16;25.40;;;19.60;;
9563;SDS011;4820;50.870;4.702;2023-02-15T06:47:41;28.70;;;19.70;;
9563;SDS011;4820;50.870;4.702;2023-02-15T06:50:09;30.17;;;21.27;;
9563;SDS011;4820;50.870;4.702;2023-02-15T06:52:35;30.93;;;20.37;;
9563;SDS011;4820;50.870;4.702;2023-02-15T06:55:01;26.90;;;20.37;;
9563;SDS011;4820;50.870;4.702;2023-02-15T06:57:27;26.73;;;19.20;;
9563;SDS011;4820;50.870;4.702;2023-02-15T06:59:53;25.60;;;18.53;;
9563;SDS011;4820;50.870;4.702;2023-02-15T07:02:19;26.43;;;18.63;;
9563;SDS011;4820;50.870;4.702;2023-02-15T07:04:44;28.40;;;20.53;;
9563;SDS011;4820;50.870;4.702;2023-02-15T07:07:11;25.47;;;19.43;;
9563;SDS011;4820;50.870;4.702;2023-02-15T07:09:37;30.40;;;20.23;;
9563;SDS011;4820;50.870;4.702;2023-02-15T07:12:03;26.13;;;19.07;;
9563;SDS011;4820;50.870;4.702;2023-02-15T07:14:49;28.13;;;19.40;;
9563;SDS011;4820;50.870;4.702;2023-02-15T07:17:15;34.53;;;20.60;;
9563;SDS011;4820;50.870;4.702;2023-02-15T07:19:41;32.57;;;19.93;;
9563;SDS011;4820;50.870;4.702;2023-02-15T07:22:06;30.70;;;21.50;;
9563;SDS011;4820;50.870;4.702;2023-02-15T07:24:32;27.37;;;20.00;;
9563;SDS011;4820;50.870;4.702;2023-02-15T07:26:58;28.70;;;20.60;;
9563;SDS011;4820;50.870;4.702;2023-02-15T07:29:23;28.50;;;20.33;;
9563;SDS011;4820;50.870;4.702;2023-02-15T07:31:49;32.17;;;21.27;;
9563;SDS011;4820;50.870;4.702;2023-02-15T07:34:15;27.80;;;20.17;;
9563;SDS011;4820;50.870;4.702;2023-02-15T07:36:41;28.13;;;20.65;;
9563;SDS011;4820;50.870;4.702;2023-02-15T07:39:11;25.77;;;19.50;;
9563;SDS011;4820;50.870;4.702;2023-02-15T07:41:37;25.73;;;19.20;;
9563;SDS011;4820;50.870;4.702;2023-02-15T07:44:03;30.00;;;20.87;;
9563;SDS011;4820;50.870;4.702;2023-02-15T07:46:29;25.93;;;19.23;;
9563;SDS011;4820;50.870;4.702;2023-02-15T07:48:55;25.93;;;19.47;;
9563;SDS011;4820;50.870;4.702;2023-02-15T07:51:20;25.50;;;19.10;;
9563;SDS011;4820;50.870;4.702;2023-02-15T07:53:46;28.53;;;20.00;;
9563;SDS011;4820;50.870;4.702;2023-02-15T07:56:13;29.80;;;20.53;;
9563;SDS011;4820;50.870;4.702;2023-02-15T07:58:39;27.47;;;19.73;;
9563;SDS011;4820;50.870;4.702;2023-02-15T08:01:25;33.20;;;22.40;;
9563;SDS011;4820;50.870;4.702;2023-02-15T08:03:52;28.43;;;20.77;;
9563;SDS011;4820;50.870;4.702;2023-02-15T08:06:19;31.10;;;22.45;;
9563;SDS011;4820;50.870;4.702;2023-02-15T08:08:46;33.80;;;23.25;;
9563;SDS011;4820;50.870;4.702;2023-02-15T08:11:17;32.57;;;23.27;;
9563;SDS011;4820;50.870;4.702;2023-02-15T08:13:51;31.70;;;23.73;;
9563;SDS011;4820;50.870;4.702;2023-02-15T08:18:55;35.43;;;24.77;;
9563;SDS011;4820;50.870;4.702;2023-02-15T08:21:21;35.37;;;24.17;;
9563;SDS011;4820;50.870;4.702;2023-02-15T08:23:47;34.53;;;24.53;;
9563;SDS011;4820;50.870;4.702;2023-02-15T08:26:13;35.55;;;25.00;;
9563;SDS011;4820;50.870;4.702;2023-02-15T08:28:40;37.13;;;25.20;;
9563;SDS011;4820;50.870;4.702;2023-02-15T08:31:07;34.20;;;24.80;;
9563;SDS011;4820;50.870;4.702;2023-02-15T08:33:37;39.27;;;23.43;;
9563;SDS011;4820;50.870;4.702;2023-02-15T08:36:08;34.67;;;24.13;;
9563;SDS011;4820;50.870;4.702;2023-02-15T08:38:36;34.17;;;22.80;;
9563;SDS011;4820;50.870;4.702;2023-02-15T08:43:48;30.90;;;22.77;;
9563;SDS011;4820;50.870;4.702;2023-02-15T08:46:17;32.05;;;23.27;;
9563;SDS011;4820;50.870;4.702;2023-02-15T08:48:44;32.07;;;22.97;;
9563;SDS011;4820;50.870;4.702;2023-02-15T08:51:11;29.40;;;22.07;;
9563;SDS011;4820;50.870;4.702;2023-02-15T08:53:43;31.57;;;22.20;;
9563;SDS011;4820;50.870;4.702;2023-02-15T08:56:11;28.67;;;21.48;;
9563;SDS011;4820;50.870;4.702;2023-02-15T08:58:38;30.27;;;22.03;;
9563;SDS011;4820;50.870;4.702;2023-02-15T09:01:10;31.88;;;22.65;;
9563;SDS011;4820;50.870;4.702;2023-02-15T09:03:38;36.88;;;23.35;;
9563;SDS011;4820;50.870;4.702;2023-02-15T09:06:05;31.88;;;23.00;;
9563;SDS011;4820;50.870;4.702;2023-02-15T09:08:31;31.23;;;22.67;;
9563;SDS011;4820;50.870;4.702;2023-02-15T09:13:42;29.23;;;22.85;;
9563;SDS011;4820;50.870;4.702;2023-02-15T09:16:09;30.33;;;22.80;;
9563;SDS011;4820;50.870;4.702;2023-02-15T09:18:37;28.08;;;22.25;;
9563;SDS011;4820;50.870;4.702;2023-02-15T09:21:16;29.05;;;22.27;;
9563;SDS011;4820;50.870;4.702;2023-02-15T09:23:48;28.98;;;22.85;;
9563;SDS011;4820;50.870;4.702;2023-02-15T09:26:19;29.00;;;22.05;;
9563;SDS011;4820;50.870;4.702;2023-02-15T09:28:46;34.03;;;22.52;;
9563;SDS011;4820;50.870;4.702;2023-02-15T09:31:17;29.67;;;22.83;;
9563;SDS011;4820;50.870;4.702;2023-02-15T09:33:45;32.70;;;22.98;;
9563;SDS011;4820;50.870;4.702;2023-02-15T09:36:13;29.50;;;22.70;;
9563;SDS011;4820;50.870;4.702;2023-02-15T09:38:47;30.88;;;23.15;;
9563;SDS011;4820;50.870;4.702;2023-02-15T09:49:21;30.48;;;23.00;;
9563;SDS011;4820;50.870;4.702;2023-02-15T09:52:12;33.92;;;23.10;;
9563;SDS011;4820;50.870;4.702;2023-02-15T09:55:00;33.10;;;23.35;;
9563;SDS011;4820;50.870;4.702;2023-02-15T09:57:51;33.13;;;22.60;;
9563;SDS011;4820;50.870;4.702;2023-02-15T10:03:34;30.17;;;22.65;;
9563;SDS011;4820;50.870;4.702;2023-02-15T10:06:56;30.65;;;22.90;;
9563;SDS011;4820;50.870;4.702;2023-02-15T10:12:09;27.75;;;22.65;;
9563;SDS011;4820;50.870;4.702;2023-02-15T10:26:21;24.95;;;20.08;;
9563;SDS011;4820;50.870;4.702;2023-02-15T10:29:08;26.05;;;20.42;;
9563;SDS011;4820;50.870;4.702;2023-02-15T10:31:49;27.95;;;20.85;;
9563;SDS011;4820;50.870;4.702;2023-02-15T10:34:35;24.50;;;19.77;;
9563;SDS011;4820;50.870;4.702;2023-02-15T10:42:43;24.52;;;19.83;;
9563;SDS011;4820;50.870;4.702;2023-02-15T10:53:52;23.95;;;17.85;;
9563;SDS011;4820;50.870;4.702;2023-02-15T11:02:00;23.08;;;18.15;;
9563;SDS011;4820;50.870;4.702;2023-02-15T11:04:57;25.67;;;18.23;;
9563;SDS011;4820;50.870;4.702;2023-02-15T11:07:46;26.73;;;17.98;;
9563;SDS011;4820;50.870;4.702;2023-02-15T11:12:55;24.33;;;17.70;;
9563;SDS011;4820;50.870;4.702;2023-02-15T11:15:29;25.30;;;18.45;;
9563;SDS011;4820;50.870;4.702;2023-02-15T11:20:53;22.67;;;18.23;;
9563;SDS011;4820;50.870;4.702;2023-02-15T11:23:19;23.40;;;18.08;;
9563;SDS011;4820;50.870;4.702;2023-02-15T11:25:59;24.10;;;18.30;;
9563;SDS011;4820;50.870;4.702;2023-02-15T11:28:31;23.05;;;18.00;;
9563;SDS011;4820;50.870;4.702;2023-02-15T11:31:40;26.58;;;18.17;;
9563;SDS011;4820;50.870;4.702;2023-02-15T11:34:13;23.95;;;18.73;;
9563;SDS011;4820;50.870;4.702;2023-02-15T11:36:46;23.80;;;17.83;;
9563;SDS011;4820;50.870;4.702;2023-02-15T11:39:16;23.55;;;18.77;;
9563;SDS011;4820;50.870;4.702;2023-02-15T11:41:50;23.10;;;18.45;;
9563;SDS011;4820;50.870;4.702;2023-02-15T11:44:33;24.10;;;18.33;;
9563;SDS011;4820;50.870;4.702;2023-02-15T11:47:02;24.65;;;18.23;;
9563;SDS011;4820;50.870;4.702;2023-02-15T11:49:32;26.42;;;18.95;;
9563;SDS011;4820;50.870;4.702;2023-02-15T11:52:00;24.33;;;18.40;;
9563;SDS011;4820;50.870;4.702;2023-02-15T11:54:30;23.67;;;17.65;;
9563;SDS011;4820;50.870;4.702;2023-02-15T11:59:47;25.25;;;17.63;;
9563;SDS011;4820;50.870;4.702;2023-02-15T12:02:21;23.27;;;17.98;;
9563;SDS011;4820;50.870;4.702;2023-02-15T12:04:54;25.35;;;19.20;;
9563;SDS011;4820;50.870;4.702;2023-02-15T12:07:24;25.30;;;18.65;;
9563;SDS011;4820;50.870;4.702;2023-02-15T12:12:32;27.70;;;18.98;;
9563;SDS011;4820;50.870;4.702;2023-02-15T12:15:00;24.75;;;18.50;;
9563;SDS011;4820;50.870;4.702;2023-02-15T12:17:32;22.45;;;17.65;;
9563;SDS011;4820;50.870;4.702;2023-02-15T12:22:55;25.50;;;19.13;;
9563;SDS011;4820;50.870;4.702;2023-02-15T12:31:02;25.90;;;18.45;;
9563;SDS011;4820;50.870;4.702;2023-02-15T12:36:11;22.35;;;18.27;;
9563;SDS011;4820;50.870;4.702;2023-02-15T12:38:42;25.73;;;18.92;;
9563;SDS011;4820;50.870;4.702;2023-02-15T12:44:24;26.83;;;20.00;;
9563;SDS011;4820;50.870;4.702;2023-02-15T12:49:23;25.30;;;18.92;;
9563;SDS011;4820;50.870;4.702;2023-02-15T12:54:34;27.25;;;19.83;;
9563;SDS011;4820;50.870;4.702;2023-02-15T12:57:20;26.38;;;19.20;;
9563;SDS011;4820;50.870;4.702;2023-02-15T12:59:51;28.33;;;19.77;;
9563;SDS011;4820;50.870;4.702;2023-02-15T13:08:09;26.48;;;20.15;;
9563;SDS011;4820;50.870;4.702;2023-02-15T13:13:32;23.98;;;19.17;;
9563;SDS011;4820;50.870;4.702;2023-02-15T13:16:02;25.90;;;20.65;;
9563;SDS011;4820;50.870;4.702;2023-02-15T13:21:06;26.08;;;19.10;;
9563;SDS011;4820;50.870;4.702;2023-02-15T13:23:39;25.73;;;18.38;;
9563;SDS011;4820;50.870;4.702;2023-02-15T13:26:14;25.83;;;19.63;;
9563;SDS011;4820;50.870;4.702;2023-02-15T13:28:47;28.15;;;20.00;;
9563;SDS011;4820;50.870;4.702;2023-02-15T13:31:18;25.63;;;19.50;;
9563;SDS011;4820;50.870;4.702;2023-02-15T13:33:49;34.08;;;25.15;;
9563;SDS011;4820;50.870;4.702;2023-02-15T13:36:23;26.25;;;19.98;;
9563;SDS011;4820;50.870;4.702;2023-02-15T13:41:33;28.80;;;21.35;;
9563;SDS011;4820;50.870;4.702;2023-02-15T13:52:44;26.08;;;20.27;;
9563;SDS011;4820;50.870;4.702;2023-02-15T14:06:17;28.75;;;21.05;;
9563;SDS011;4820;50.870;4.702;2023-02-15T14:20:32;34.05;;;23.13;;
9563;SDS011;4820;50.870;4.702;2023-02-15T14:25:57;29.92;;;22.08;;
9563;SDS011;4820;50.870;4.702;2023-02-15T14:28:36;29.30;;;22.08;;
9563;SDS011;4820;50.870;4.702;2023-02-15T14:31:11;28.98;;;22.88;;
9563;SDS011;4820;50.870;4.702;2023-02-15T14:33:40;30.73;;;22.90;;
9563;SDS011;4820;50.870;4.702;2023-02-15T14:36:13;29.52;;;21.38;;
9563;SDS011;4820;50.870;4.702;2023-02-15T14:38:50;27.67;;;20.95;;
9563;SDS011;4820;50.870;4.702;2023-02-15T14:44:22;26.42;;;21.08;;
9563;SDS011;4820;50.870;4.702;2023-02-15T14:47:11;26.80;;;20.88;;
9563;SDS011;4820;50.870;4.702;2023-02-15T14:49:45;30.15;;;21.88;;
9563;SDS011;4820;50.870;4.702;2023-02-15T14:52:11;30.00;;;22.27;;
9563;SDS011;4820;50.870;4.702;2023-02-15T15:09:57;26.83;;;20.70;;
9563;SDS011;4820;50.870;4.702;2023-02-15T15:14:51;27.60;;;21.05;;
9563;SDS011;4820;50.870;4.702;2023-02-15T15:22:27;28.38;;;21.77;;
9563;SDS011;4820;50.870;4.702;2023-02-15T15:24:58;31.15;;;22.38;;
9563;SDS011;4820;50.870;4.702;2023-02-15T15:32:38;31.63;;;22.50;;
9563;SDS011;4820;50.870;4.702;2023-02-15T15:42:03;26.88;;;20.77;;
9563;SDS011;4820;50.870;4.702;2023-02-15T15:49:28;29.80;;;21.67;;
9563;SDS011;4820;50.870;4.702;2023-02-15T15:51:59;30.33;;;21.55;;
9563;SDS011;4820;50.870;4.702;2023-02-15T15:54:27;32.78;;;23.27;;
9563;SDS011;4820;50.870;4.702;2023-02-15T15:56:54;29.90;;;23.25;;
9563;SDS011;4820;50.870;4.702;2023-02-15T15:59:27;34.65;;;25.40;;
9563;SDS011;4820;50.870;4.702;2023-02-15T16:01:55;33.58;;;23.83;;
9563;SDS011;4820;50.870;4.702;2023-02-15T16:04:39;33.58;;;23.92;;
9563;SDS011;4820;50.870;4.702;2023-02-15T16:12:20;32.90;;;24.15;;
9563;SDS011;4820;50.870;4.702;2023-02-15T16:14:46;29.70;;;23.10;;
9563;SDS011;4820;50.870;4.702;2023-02-15T16:17:34;33.90;;;23.60;;
9563;SDS011;4820;50.870;4.702;2023-02-15T16:20:04;35.53;;;23.83;;
9563;SDS011;4820;50.870;4.702;2023-02-15T16:22:38;48.25;;;31.70;;
9563;SDS011;4820;50.870;4.702;2023-02-15T16:32:44;35.92;;;25.55;;
9563;SDS011;4820;50.870;4.702;2023-02-15T16:35:17;31.45;;;23.13;;
9563;SDS011;4820;50.870;4.702;2023-02-15T16:37:44;27.77;;;22.30;;
9563;SDS011;4820;50.870;4.702;2023-02-15T16:40:34;32.00;;;22.25;;
9563;SDS011;4820;50.870;4.702;2023-02-15T16:43:02;29.63;;;23.95;;
9563;SDS011;4820;50.870;4.702;2023-02-15T16:45:31;30.10;;;23.27;;
9563;SDS011;4820;50.870;4.702;2023-02-15T16:47:59;28.90;;;23.15;;
9563;SDS011;4820;50.870;4.702;2023-02-15T16:50:33;32.78;;;23.60;;
9563;SDS011;4820;50.870;4.702;2023-02-15T16:53:01;30.23;;;23.75;;
9563;SDS011;4820;50.870;4.702;2023-02-15T16:55:37;31.02;;;23.77;;
9563;SDS011;4820;50.870;4.702;2023-02-15T16:58:06;28.33;;;23.60;;
9563;SDS011;4820;50.870;4.702;2023-02-15T17:00:37;31.95;;;24.27;;
9563;SDS011;4820;50.870;4.702;2023-02-15T17:05:41;32.47;;;24.58;;
9563;SDS011;4820;50.870;4.702;2023-02-15T17:13:36;34.50;;;25.25;;
9563;SDS011;4820;50.870;4.702;2023-02-15T17:18:44;33.55;;;25.90;;
9563;SDS011;4820;50.870;4.702;2023-02-15T17:21:12;35.45;;;26.23;;
9563;SDS011;4820;50.870;4.702;2023-02-15T17:23:44;36.03;;;26.92;;
9563;SDS011;4820;50.870;4.702;2023-02-15T17:26:16;35.05;;;27.10;;
9563;SDS011;4820;50.870;4.702;2023-02-15T17:28:48;36.47;;;25.83;;
9563;SDS011;4820;50.870;4.702;2023-02-15T17:31:17;33.13;;;26.45;;
9563;SDS011;4820;50.870;4.702;2023-02-15T17:33:44;32.45;;;24.92;;
9563;SDS011;4820;50.870;4.702;2023-02-15T17:36:21;33.90;;;26.00;;
9563;SDS011;4820;50.870;4.702;2023-02-15T17:41:22;32.25;;;25.52;;
9563;SDS011;4820;50.870;4.702;2023-02-15T17:43:53;32.63;;;25.90;;
9563;SDS011;4820;50.870;4.702;2023-02-15T17:46:18;31.23;;;25.75;;
9563;SDS011;4820;50.870;4.702;2023-02-15T17:48:48;34.65;;;25.05;;
9563;SDS011;4820;50.870;4.702;2023-02-15T17:51:19;30.10;;;24.70;;
9563;SDS011;4820;50.870;4.702;2023-02-15T17:53:45;28.85;;;24.20;;
9563;SDS011;4820;50.870;4.702;2023-02-15T17:56:30;33.03;;;25.17;;
9563;SDS011;4820;50.870;4.702;2023-02-15T17:58:57;28.35;;;23.55;;
9563;SDS011;4820;50.870;4.702;2023-02-15T18:01:22;33.20;;;25.80;;
9563;SDS011;4820;50.870;4.702;2023-02-15T18:04:11;37.03;;;25.80;;
9563;SDS011;4820;50.870;4.702;2023-02-15T18:06:56;30.23;;;24.33;;
9563;SDS011;4820;50.870;4.702;2023-02-15T18:09:40;27.77;;;21.73;;
9563;SDS011;4820;50.870;4.702;2023-02-15T18:12:26;29.80;;;23.83;;
9563;SDS011;4820;50.870;4.702;2023-02-15T18:14:53;31.60;;;24.17;;
9563;SDS011;4820;50.870;4.702;2023-02-15T18:17:39;30.00;;;24.88;;
9563;SDS011;4820;50.870;4.702;2023-02-15T18:22:43;28.17;;;24.02;;
9563;SDS011;4820;50.870;4.702;2023-02-15T18:25:16;32.05;;;25.05;;
9563;SDS011;4820;50.870;4.702;2023-02-15T18:27:43;31.55;;;25.95;;
9563;SDS011;4820;50.870;4.702;2023-02-15T18:30:12;34.00;;;25.50;;
9563;SDS011;4820;50.870;4.702;2023-02-15T18:32:43;35.20;;;26.00;;
9563;SDS011;4820;50.870;4.702;2023-02-15T18:35:29;35.33;;;26.65;;
9563;SDS011;4820;50.870;4.702;2023-02-15T18:37:57;30.75;;;24.65;;
9563;SDS011;4820;50.870;4.702;2023-02-15T18:40:25;30.60;;;25.77;;
9563;SDS011;4820;50.870;4.702;2023-02-15T18:42:51;30.08;;;24.48;;
9563;SDS011;4820;50.870;4.702;2023-02-15T18:45:18;36.30;;;27.23;;
9563;SDS011;4820;50.870;4.702;2023-02-15T18:47:49;33.75;;;26.83;;
9563;SDS011;4820;50.870;4.702;2023-02-15T18:50:16;32.47;;;26.88;;
9563;SDS011;4820;50.870;4.702;2023-02-15T18:52:46;35.30;;;27.10;;
9563;SDS011;4820;50.870;4.702;2023-02-15T18:55:20;31.35;;;27.02;;
9563;SDS011;4820;50.870;4.702;2023-02-15T18:57:50;34.85;;;27.83;;
9563;SDS011;4820;50.870;4.702;2023-02-15T19:00:21;34.70;;;27.35;;
9563;SDS011;4820;50.870;4.702;2023-02-15T19:02:56;36.38;;;28.45;;
9563;SDS011;4820;50.870;4.702;2023-02-15T19:05:23;33.65;;;26.77;;
9563;SDS011;4820;50.870;4.702;2023-02-15T19:07:53;37.90;;;27.63;;
9563;SDS011;4820;50.870;4.702;2023-02-15T19:10:25;36.72;;;28.17;;